Time;durP1;ratioP1;P1;durP2;ratioP2;P2;SDS_P1;SDS_P2;PMS_P1;PMS_P2;Temp;Humidity;BMP_temperature;BMP_pressure;BME280_temperature;BME280_humidity;BME280_pressure;Samples;Min_cycle;Max_cycle;Signal;HPM_P1;HPM_P2
2023/10/22 00:01:02;;;;;;;;;;;;;;;16.81;59.84;99800.66;4196387;28;19928;-56
2023/10/22 00:03:04;;;;;;;;;;;;;;;16.81;60.02;99803.31;4201087;28;20360;-57
2023/10/22 00:05:06;;;;;;;;;;;;;;;16.81;60.15;99811.28;4213076;28;19934;-58
2023/10/22 00:07:09;;;;;;;;;;;;;;;16.80;59.77;99812.22;4205848;28;20090;-56
2023/10/22 00:09:11;;;;;;;;;;;;;;;16.81;60.01;99821.91;4208153;28;20300;-57
2023/10/22 00:11:12;;;;;;;;;;;;;;;16.80;59.88;99820.19;4211691;28;19932;-55
2023/10/22 00:13:14;;;;;;;;;;;;;;;16.80;59.85;99822.03;4201755;28;19928;-56
2023/10/22 00:15:16;;;;;;;;;;;;;;;16.80;60.01;99822.84;4213420;28;19928;-57
2023/10/22 00:17:17;;;;;;;;;;;;;;;16.79;60.16;99826.47;4210849;28;20313;-55
2023/10/22 00:19:19;;;;;;;;;;;;;;;16.79;60.21;99822.97;4212894;28;20424;-56
2023/10/22 00:21:20;;;;;;;;;;;;;;;16.78;60.15;99827.47;4212828;28;20301;-57
2023/10/22 00:23:22;;;;;;;;;;;;;;;16.79;60.08;99834.44;4201934;28;19969;-55
2023/10/22 00:25:23;;;;;;;;;;;;;;;16.79;59.84;99828.28;4213762;28;19931;-57
2023/10/22 00:27:26;;;;;;;;;;;;;;;16.78;59.91;99830.13;4203858;28;20365;-57
2023/10/22 00:29:27;;;;;;;;;;;;;;;16.78;59.71;99830.13;4208405;28;20283;-56
2023/10/22 00:31:30;;;;;;;;;;;;;;;16.77;59.92;99837.22;4207113;28;19928;-56
2023/10/22 00:33:32;;;;;;;;;;;;;;;16.78;60.12;99840.72;4211642;28;19967;-55
2023/10/22 00:35:33;;;;;;;;;;;;;;;16.76;60.12;99838.16;4200718;28;20019;-56
2023/10/22 00:37:35;;;;;;;;;;;;;;;16.77;60.12;99836.38;4201700;28;19946;-56
2023/10/22 00:39:37;;;;;;;;;;;;;;;16.77;59.84;99849.66;4209709;28;19935;-57
2023/10/22 00:41:38;;;;;;;;;;;;;;;16.76;60.08;99847.97;4199758;28;20386;-56
2023/10/22 00:43:40;;;;;;;;;;;;;;;16.76;59.95;99851.44;4209424;28;19962;-56
2023/10/22 00:45:42;;;;;;;;;;;;;;;16.76;60.13;99854.09;4202218;28;19960;-56
2023/10/22 00:47:43;;;;;;;;;;;;;;;16.76;59.91;99853.28;4200257;28;19928;-55
2023/10/22 00:49:45;;;;;;;;;;;;;;;16.75;59.78;99860.38;4210503;28;20407;-57
2023/10/22 00:51:50;;;;;;;;;;;;;;;16.76;59.86;99861.25;4199537;28;19929;-55
2023/10/22 00:53:51;;;;;;;;;;;;;;;16.74;59.81;99863.16;4202852;28;19932;-56
2023/10/22 00:55:53;;;;;;;;;;;;;;;16.74;59.90;99863.16;4212212;28;19951;-57
2023/10/22 00:57:55;;;;;;;;;;;;;;;16.74;60.16;99863.16;4214253;28;19924;-57
2023/10/22 00:59:57;;;;;;;;;;;;;;;16.74;60.16;99869.31;4204563;28;19981;-57
2023/10/22 01:01:58;;;;;;;;;;;;;;;16.74;59.79;99869.31;4209452;28;19924;-57
2023/10/22 01:04:00;;;;;;;;;;;;;;;16.74;60.02;99868.47;4205788;28;19924;-56
2023/10/22 01:06:04;;;;;;;;;;;;;;;16.73;59.80;99870.28;4204462;28;20364;-56
2023/10/22 01:08:06;;;;;;;;;;;;;;;16.73;60.11;99875.59;4200391;28;20278;-57
2023/10/22 01:10:09;;;;;;;;;;;;;;;16.72;59.82;99875.69;4210234;28;20275;-57
2023/10/22 01:12:10;;;;;;;;;;;;;;;16.72;60.26;99879.22;4199551;28;19958;-57
2023/10/22 01:14:12;;;;;;;;;;;;;;;16.73;59.82;99877.38;4204596;28;20389;-57
2023/10/22 01:16:13;;;;;;;;;;;;;;;16.72;59.88;99884.53;4205639;28;19925;-57
2023/10/22 01:18:15;;;;;;;;;;;;;;;16.71;60.29;99888.13;4209674;28;19966;-57
2023/10/22 01:20:17;;;;;;;;;;;;;;;16.70;60.12;99888.25;4198894;28;19970;-57
2023/10/22 01:22:18;;;;;;;;;;;;;;;16.72;59.77;99894.28;4198975;28;19926;-55
2023/10/22 01:24:20;;;;;;;;;;;;;;;16.61;60.05;99876.50;4200910;28;19924;-55
2023/10/22 01:26:21;;;;;;;;;;;;;;;16.71;60.07;99882.81;4209666;28;19977;-56
2023/10/22 01:28:23;;;;;;;;;;;;;;;16.71;59.81;99892.59;4215668;28;19969;-56
2023/10/22 01:30:25;;;;;;;;;;;;;;;16.71;59.92;99892.59;4211276;28;19977;-56
2023/10/22 01:32:30;;;;;;;;;;;;;;;16.70;59.86;99899.72;4214626;28;19930;-55
2023/10/22 01:34:31;;;;;;;;;;;;;;;16.69;59.92;99902.47;4211129;28;20362;-56
2023/10/22 01:36:33;;;;;;;;;;;;;;;16.69;59.75;99908.63;4208463;28;19928;-56
2023/10/22 01:38:35;;;;;;;;;;;;;;;16.70;59.77;99904.19;4198706;28;20415;-56
2023/10/22 01:40:36;;;;;;;;;;;;;;;16.68;59.72;99901.63;4190931;28;19994;-57
2023/10/22 01:42:38;;;;;;;;;;;;;;;16.68;60.02;99903.44;4200929;28;20399;-56
2023/10/22 01:44:39;;;;;;;;;;;;;;;16.67;60.15;99905.25;4199806;28;19998;-56
2023/10/22 01:46:41;;;;;;;;;;;;;;;16.68;59.83;99912.25;4209328;28;19979;-55
2023/10/22 01:48:42;;;;;;;;;;;;;;;16.68;59.81;99909.59;4198232;28;19968;-55
2023/10/22 01:50:44;;;;;;;;;;;;;;;16.68;59.85;99914.06;4189582;28;19936;-56
2023/10/22 01:52:46;;;;;;;;;;;;;;;16.67;59.71;99907.91;4211177;28;20011;-56
2023/10/22 01:54:47;;;;;;;;;;;;;;;16.66;59.88;99914.19;4213744;28;19954;-55
2023/10/22 01:56:49;;;;;;;;;;;;;;;16.66;60.23;99911.53;4203604;28;19924;-54
2023/10/22 01:58:51;;;;;;;;;;;;;;;16.66;59.99;99921.28;4215260;28;20361;-56
2023/10/22 02:01:02;;;;;;;;;;;;;;;16.66;60.07;99926.59;4207709;28;19931;-56
2023/10/22 02:03:04;;;;;;;;;;;;;;;16.66;59.80;99921.28;4214002;28;19970;-56
2023/10/22 02:05:06;;;;;;;;;;;;;;;16.66;60.00;99924.81;4213363;28;20353;-57
2023/10/22 02:07:08;;;;;;;;;;;;;;;16.66;59.80;99926.59;4203387;28;20010;-55
2023/10/22 02:09:09;;;;;;;;;;;;;;;16.50;60.11;99903.84;4214871;28;20004;-56
2023/10/22 02:11:11;;;;;;;;;;;;;;;16.64;59.76;99934.69;4208179;28;19930;-57
2023/10/22 02:13:13;;;;;;;;;;;;;;;16.64;60.02;99925.88;4208898;28;20381;-56
2023/10/22 02:15:15;;;;;;;;;;;;;;;16.64;59.82;99934.69;4213098;28;19935;-57
2023/10/22 02:17:16;;;;;;;;;;;;;;;16.64;59.73;99936.50;4205041;28;19962;-56
2023/10/22 02:19:18;;;;;;;;;;;;;;;16.63;59.91;99934.81;4214812;28;19928;-57
2023/10/22 02:21:25;;;;;;;;;;;;;;;16.63;59.79;99940.09;4205365;28;20368;-56
2023/10/22 02:23:27;;;;;;;;;;;;;;;16.62;59.77;99939.25;4197772;28;19968;-56
2023/10/22 02:25:29;;;;;;;;;;;;;;;16.62;59.98;99944.56;4208298;28;20305;-56
2023/10/22 02:27:31;;;;;;;;;;;;;;;16.62;59.77;99941.91;4209174;28;20498;-56
2023/10/22 02:29:33;;;;;;;;;;;;;;;16.61;59.83;99950.84;4197982;28;20360;-56
2023/10/22 02:31:34;;;;;;;;;;;;;;;16.62;59.85;99957.81;4201836;28;19935;-56
2023/10/22 02:33:37;;;;;;;;;;;;;;;16.60;59.98;99959.78;4205927;28;19924;-56
2023/10/22 02:35:40;;;;;;;;;;;;;;;16.63;59.77;99956.03;4214298;28;19924;-56
2023/10/22 02:37:42;;;;;;;;;;;;;;;16.60;59.87;99957.94;4202112;28;20015;-56
2023/10/22 02:39:43;;;;;;;;;;;;;;;16.61;59.66;99964.97;4213996;28;19967;-56
2023/10/22 02:41:45;;;;;;;;;;;;;;;16.59;59.72;99961.56;4211532;28;19928;-56
2023/10/22 02:43:46;;;;;;;;;;;;;;;16.60;59.92;99957.13;4204051;28;19924;-57
2023/10/22 02:45:54;;;;;;;;;;;;;;;16.59;59.78;99961.56;4213932;28;20002;-56
2023/10/22 02:47:59;;;;;;;;;;;;;;;16.59;59.96;99963.38;4202674;28;19928;-55
2023/10/22 02:50:01;;;;;;;;;;;;;;;16.58;59.78;99969.63;4210704;28;19924;-55
2023/10/22 02:52:03;;;;;;;;;;;;;;;16.59;59.91;99977.50;4201175;28;19924;-56
2023/10/22 02:54:07;;;;;;;;;;;;;;;16.58;59.72;99978.44;4204270;28;19960;-56
2023/10/22 02:56:09;;;;;;;;;;;;;;;16.58;59.64;99977.59;4214210;28;19924;-56
2023/10/22 02:58:11;;;;;;;;;;;;;;;16.57;59.89;99974.13;4203651;28;19978;-56
2023/10/22 03:00:13;;;;;;;;;;;;;;;16.57;59.86;99973.25;4211683;28;19924;-56
2023/10/22 03:02:33;;;;;;;;;;;;;;;16.56;59.62;99980.38;4205642;28;20019;-57
2023/10/22 03:04:35;;;;;;;;;;;;;;;16.56;59.74;99982.16;4206268;28;19943;-57
2023/10/22 03:06:37;;;;;;;;;;;;;;;16.56;59.68;99985.69;4197117;28;19931;-57
2023/10/22 03:08:40;;;;;;;;;;;;;;;16.55;59.63;99985.78;4208180;28;20014;-57
2023/10/22 03:10:41;;;;;;;;;;;;;;;16.56;59.72;99992.78;4198283;28;19928;-57
2023/10/22 03:12:43;;;;;;;;;;;;;;;16.55;59.85;100001.69;4198779;28;19924;-57
2023/10/22 03:14:44;;;;;;;;;;;;;;;16.56;59.81;99995.44;4207189;28;20420;-56
2023/10/22 03:16:47;;;;;;;;;;;;;;;16.55;59.81;100004.34;4197003;28;20006;-56
2023/10/22 03:18:50;;;;;;;;;;;;;;;16.55;59.88;99996.41;4185756;28;20015;-57
2023/10/22 03:20:51;;;;;;;;;;;;;;;16.55;59.60;100007.00;4211017;28;19924;-57
2023/10/22 03:22:53;;;;;;;;;;;;;;;16.54;59.94;100006.19;4210722;28;19928;-56
2023/10/22 03:24:55;;;;;;;;;;;;;;;16.55;59.88;100012.31;4207566;28;20277;-56
2023/10/22 03:26:57;;;;;;;;;;;;;;;16.54;59.57;100016.81;4209309;28;19974;-56
2023/10/22 03:28:59;;;;;;;;;;;;;;;16.53;59.86;100008.94;4209244;28;19928;-56
2023/10/22 03:31:03;;;;;;;;;;;;;;;16.54;60.02;100005.34;4204425;28;20346;-56
2023/10/22 03:33:05;;;;;;;;;;;;;;;16.53;59.77;100016.91;4211670;28;20301;-56
2023/10/22 03:35:08;;;;;;;;;;;;;;;16.52;59.69;100020.53;4207849;28;19928;-57
2023/10/22 03:37:09;;;;;;;;;;;;;;;16.51;59.73;100013.50;4196557;28;19928;-55
2023/10/22 03:39:13;;;;;;;;;;;;;;;16.52;59.77;100015.22;4203572;28;20316;-55
2023/10/22 03:41:15;;;;;;;;;;;;;;;16.51;59.81;100011.69;4201935;28;19924;-57
2023/10/22 03:43:16;;;;;;;;;;;;;;;16.52;59.67;100023.19;4197828;28;20003;-56
2023/10/22 03:45:21;;;;;;;;;;;;;;;16.51;59.70;100021.47;4207996;28;19932;-55
2023/10/22 03:47:22;;;;;;;;;;;;;;;16.51;59.80;100032.94;4196737;28;19931;-56
2023/10/22 03:49:24;;;;;;;;;;;;;;;16.51;60.02;100032.09;4202249;28;19924;-56
2023/10/22 03:51:25;;;;;;;;;;;;;;;16.50;59.63;100044.53;4211530;28;20034;-57
2023/10/22 03:53:27;;;;;;;;;;;;;;;16.50;59.78;100047.19;4194890;28;19933;-57
2023/10/22 03:55:28;;;;;;;;;;;;;;;16.49;59.86;100040.19;4208327;28;19924;-54
2023/10/22 03:57:30;;;;;;;;;;;;;;;16.49;59.72;100041.97;4195731;28;19924;-55
2023/10/22 03:59:32;;;;;;;;;;;;;;;16.49;59.89;100039.31;4199817;28;19924;-54
2023/10/22 04:01:33;;;;;;;;;;;;;;;16.49;59.99;100055.22;4207755;28;19924;-54
2023/10/22 04:03:35;;;;;;;;;;;;;;;16.47;59.75;100050.03;4212059;28;19931;-56
2023/10/22 04:05:36;;;;;;;;;;;;;;;16.47;59.84;100054.53;4208634;28;19947;-56
2023/10/22 04:07:38;;;;;;;;;;;;;;;16.46;60.08;100058.97;4197426;28;19936;-57
2023/10/22 04:09:39;;;;;;;;;;;;;;;16.47;59.76;100065.97;4198820;28;19928;-55
2023/10/22 04:11:41;;;;;;;;;;;;;;;16.47;60.04;100070.44;4206368;28;19929;-57
2023/10/22 04:13:42;;;;;;;;;;;;;;;16.45;59.81;100067.88;4196630;28;20388;-56
2023/10/22 04:15:45;;;;;;;;;;;;;;;16.45;59.92;100068.75;4206036;28;19924;-57
2023/10/22 04:17:47;;;;;;;;;;;;;;;16.45;60.05;100070.53;4206482;28;20433;-57
2023/10/22 04:19:49;;;;;;;;;;;;;;;16.46;59.79;100074.88;4208373;28;19928;-57
2023/10/22 04:21:50;;;;;;;;;;;;;;;16.45;59.96;100081.16;4201445;28;20019;-56
2023/10/22 04:23:52;;;;;;;;;;;;;;;16.44;59.95;100090.94;4204438;28;19924;-57
2023/10/22 04:25:54;;;;;;;;;;;;;;;16.46;59.98;100088.16;4205491;28;19924;-57
2023/10/22 04:27:55;;;;;;;;;;;;;;;16.45;59.79;100089.97;4213187;28;19924;-56
2023/10/22 04:29:57;;;;;;;;;;;;;;;16.44;60.10;100093.56;4211569;28;20293;-57
2023/10/22 04:31:59;;;;;;;;;;;;;;;16.45;59.88;100095.28;4210041;28;20248;-57
2023/10/22 04:34:00;;;;;;;;;;;;;;;16.44;59.84;100108.66;4213004;28;20305;-57
2023/10/22 04:36:02;;;;;;;;;;;;;;;16.44;59.79;100109.50;4206262;28;20726;-57
2023/10/22 04:38:04;;;;;;;;;;;;;;;16.43;60.15;100107.81;4206858;28;20020;-56
2023/10/22 04:40:06;;;;;;;;;;;;;;;16.44;59.78;100114.81;4211741;28;20323;-56
2023/10/22 04:42:07;;;;;;;;;;;;;;;16.43;60.04;100115.75;4201377;28;19925;-57
2023/10/22 04:44:09;;;;;;;;;;;;;;;16.43;59.96;100118.41;4212980;28;20419;-57
2023/10/22 04:46:11;;;;;;;;;;;;;;;16.42;59.88;100114.06;4207684;28;19929;-57
2023/10/22 04:48:12;;;;;;;;;;;;;;;16.42;59.99;100115.88;4205110;28;20527;-57
2023/10/22 04:50:14;;;;;;;;;;;;;;;16.44;59.75;100121.94;4212792;28;20254;-57
2023/10/22 04:52:48;;;;;;;;;;;;;;;16.44;60.01;100127.25;4200997;28;20370;-57
2023/10/22 04:54:43;;;;;;;;;;;;;;;16.41;59.95;100133.59;4210616;28;19977;-55
2023/10/22 04:56:44;;;;;;;;;;;;;;;16.42;59.63;100131.81;4201768;28;19924;-57
2023/10/22 04:58:46;;;;;;;;;;;;;;;16.41;60.05;100130.94;4195929;28;19931;-56
2023/10/22 05:00:47;;;;;;;;;;;;;;;16.41;59.71;100144.22;4195827;28;19960;-57
2023/10/22 05:02:50;;;;;;;;;;;;;;;16.40;60.01;100134.56;4198304;28;19928;-56
2023/10/22 05:04:52;;;;;;;;;;;;;;;16.41;59.90;100138.91;4212790;28;19938;-54
2023/10/22 05:06:55;;;;;;;;;;;;;;;16.40;59.88;100142.53;4207292;28;19924;-56
2023/10/22 05:08:56;;;;;;;;;;;;;;;16.41;59.95;100148.69;4205279;28;19924;-57
2023/10/22 05:10:58;;;;;;;;;;;;;;;16.40;60.09;100152.28;4215658;28;19924;-57
2023/10/22 05:12:59;;;;;;;;;;;;;;;16.39;60.04;100151.44;4198757;28;19925;-57
2023/10/22 05:15:01;;;;;;;;;;;;;;;16.40;59.87;100157.59;4198972;28;19929;-56
2023/10/22 05:17:04;;;;;;;;;;;;;;;16.39;59.84;100162.06;4200448;28;19964;-56
2023/10/22 05:19:06;;;;;;;;;;;;;;;16.40;59.81;100161.13;4215576;28;19939;-57
2023/10/22 05:21:09;;;;;;;;;;;;;;;16.40;59.81;100176.16;4215389;28;20309;-55
2023/10/22 05:23:10;;;;;;;;;;;;;;;16.39;60.20;100174.47;4203871;28;20210;-56
2023/10/22 05:25:12;;;;;;;;;;;;;;;16.39;59.94;100180.66;4211785;28;20325;-56
2023/10/22 05:27:15;;;;;;;;;;;;;;;16.39;59.75;100179.78;4202816;28;19978;-56
2023/10/22 05:29:17;;;;;;;;;;;;;;;16.37;59.88;100177.22;4208845;28;20040;-57
2023/10/22 05:31:19;;;;;;;;;;;;;;;16.37;60.18;100185.19;4204913;28;19928;-55
2023/10/22 05:33:21;;;;;;;;;;;;;;;16.38;60.06;100191.34;4211209;28;20377;-56
2023/10/22 05:35:23;;;;;;;;;;;;;;;16.36;60.13;100188.81;4201139;28;19932;-57
2023/10/22 05:37:24;;;;;;;;;;;;;;;16.37;59.74;100190.50;4199935;28;19993;-57
2023/10/22 05:39:26;;;;;;;;;;;;;;;16.36;60.03;100191.44;4209678;28;19966;-58
2023/10/22 05:41:28;;;;;;;;;;;;;;;16.37;59.74;100190.50;4198586;28;19929;-56
2023/10/22 05:43:29;;;;;;;;;;;;;;;16.37;59.77;100198.47;4206926;28;20018;-57
2023/10/22 05:45:30;;;;;;;;;;;;;;;16.37;60.11;100202.94;4202793;28;19929;-58
2023/10/22 05:47:32;;;;;;;;;;;;;;;16.37;59.95;100206.44;4199640;28;19925;-57
2023/10/22 05:49:34;;;;;;;;;;;;;;;16.38;59.76;100210.78;4209759;28;19958;-57
2023/10/22 05:51:36;;;;;;;;;;;;;;;16.37;60.04;100214.38;4214124;28;19923;-57
2023/10/22 05:53:37;;;;;;;;;;;;;;;16.37;59.70;100218.84;4207589;28;19946;-58
2023/10/22 05:55:39;;;;;;;;;;;;;;;16.36;59.86;100223.31;4209391;28;20028;-57
2023/10/22 05:57:42;;;;;;;;;;;;;;;16.36;59.75;100220.66;4213795;28;20301;-57
2023/10/22 05:59:44;;;;;;;;;;;;;;;16.35;59.79;100226.91;4209594;28;20455;-56
2023/10/22 06:01:45;;;;;;;;;;;;;;;16.36;60.09;100231.25;4203133;28;19931;-57
2023/10/22 06:03:47;;;;;;;;;;;;;;;16.35;59.76;100229.56;4210542;28;19930;-56
2023/10/22 06:05:50;;;;;;;;;;;;;;;16.36;59.70;100222.47;4205627;28;19929;-57
2023/10/22 06:07:52;;;;;;;;;;;;;;;16.34;60.12;100227.84;4198171;28;19947;-58
2023/10/22 06:09:54;;;;;;;;;;;;;;;16.35;59.73;100231.38;4202138;28;19925;-58
2023/10/22 06:11:56;;;;;;;;;;;;;;;16.34;59.76;100234.97;4215034;28;19979;-58
2023/10/22 06:13:57;;;;;;;;;;;;;;;16.34;60.02;100241.13;4213044;28;19926;-57
2023/10/22 06:15:59;;;;;;;;;;;;;;;16.34;59.66;100241.13;4198179;28;19932;-58
2023/10/22 06:18:01;;;;;;;;;;;;;;;16.33;60.05;100242.09;4207982;28;20023;-57
2023/10/22 06:20:05;;;;;;;;;;;;;;;16.34;60.05;100245.59;4199457;28;20024;-58
2023/10/22 06:22:06;;;;;;;;;;;;;;;16.34;59.81;100250.91;4196524;28;19925;-58
2023/10/22 06:24:08;;;;;;;;;;;;;;;16.35;59.74;100255.25;4206107;28;20008;-58
2023/10/22 06:26:10;;;;;;;;;;;;;;;16.34;59.73;100259.69;4205159;28;19935;-54
2023/10/22 06:28:12;;;;;;;;;;;;;;;16.34;60.08;100264.16;4198113;28;20302;-58
2023/10/22 06:30:14;;;;;;;;;;;;;;;16.33;60.17;100263.34;4207958;28;20001;-57
2023/10/22 06:32:16;;;;;;;;;;;;;;;16.34;59.83;100270.31;4214209;28;19931;-58
2023/10/22 06:34:17;;;;;;;;;;;;;;;16.34;59.84;100269.47;4210928;28;19982;-57
2023/10/22 06:36:22;;;;;;;;;;;;;;;16.34;59.88;100280.09;4208769;28;20428;-57
2023/10/22 06:38:24;;;;;;;;;;;;;;;16.34;60.05;100277.44;4197866;28;19960;-57
2023/10/22 06:40:25;;;;;;;;;;;;;;;16.34;59.77;100285.41;4188264;28;19931;-57
2023/10/22 06:42:29;;;;;;;;;;;;;;;16.33;59.80;100289.00;4201260;28;19964;-57
2023/10/22 06:44:30;;;;;;;;;;;;;;;16.33;60.12;100289.88;4199030;28;20364;-57
2023/10/22 06:46:32;;;;;;;;;;;;;;;16.33;59.78;100284.56;4208444;28;20373;-57
2023/10/22 06:48:34;;;;;;;;;;;;;;;16.34;60.00;100290.72;4197380;28;20467;-55
2023/10/22 06:50:35;;;;;;;;;;;;;;;16.33;59.82;100294.31;4204436;28;19928;-57
2023/10/22 06:52:37;;;;;;;;;;;;;;;16.33;59.99;100292.53;4202748;28;20448;-57
2023/10/22 06:54:38;;;;;;;;;;;;;;;16.34;59.65;100296.00;4198486;28;19928;-58
2023/10/22 06:56:40;;;;;;;;;;;;;;;16.33;59.80;100300.50;4208787;28;19931;-57
2023/10/22 06:58:42;;;;;;;;;;;;;;;16.33;59.72;100308.44;4197337;28;20366;-57
2023/10/22 07:00:43;;;;;;;;;;;;;;;16.34;59.97;100310.13;4202512;28;19924;-57
2023/10/22 07:02:46;;;;;;;;;;;;;;;16.32;59.70;100306.75;4210853;28;19939;-57
2023/10/22 07:04:51;;;;;;;;;;;;;;;16.33;59.81;100313.75;4213430;28;19924;-58
2023/10/22 07:06:52;;;;;;;;;;;;;;;16.32;60.12;100320.00;4197804;28;19971;-57
2023/10/22 07:08:54;;;;;;;;;;;;;;;16.32;59.73;100321.78;4197200;28;19925;-58
2023/10/22 07:10:56;;;;;;;;;;;;;;;16.31;60.06;100328.91;4197298;28;19933;-57
2023/10/22 07:12:57;;;;;;;;;;;;;;;16.32;59.87;100335.94;4196999;28;19990;-57
2023/10/22 07:14:59;;;;;;;;;;;;;;;16.31;59.79;100334.22;4197341;28;19931;-57
2023/10/22 07:17:00;;;;;;;;;;;;;;;16.31;60.00;100342.19;4198365;28;19928;-57
2023/10/22 07:19:02;;;;;;;;;;;;;;;16.32;60.04;100343.03;4213738;28;19940;-57
2023/10/22 07:21:03;;;;;;;;;;;;;;;16.32;59.82;100353.63;4191157;28;19956;-57
2023/10/22 07:23:06;;;;;;;;;;;;;;;16.33;59.79;100353.56;4210115;28;19963;-57
2023/10/22 07:25:08;;;;;;;;;;;;;;;16.32;59.91;100362.47;4203507;28;19999;-57
2023/10/22 07:27:10;;;;;;;;;;;;;;;16.33;59.78;100363.31;4209423;28;19924;-58
2023/10/22 07:29:12;;;;;;;;;;;;;;;16.31;59.81;100365.19;4199106;28;19928;-57
2023/10/22 07:31:17;;;;;;;;;;;;;;;16.31;60.14;100371.38;4200314;28;19924;-58
2023/10/22 07:33:19;;;;;;;;;;;;;;;16.32;59.73;100377.53;4196841;28;19924;-56
2023/10/22 07:35:21;;;;;;;;;;;;;;;16.31;59.91;100381.13;4195419;28;19924;-57
2023/10/22 07:37:22;;;;;;;;;;;;;;;16.31;59.99;100387.31;4205888;28;19981;-57
2023/10/22 07:39:24;;;;;;;;;;;;;;;16.30;60.07;100390.91;4200415;28;20300;-58
2023/10/22 07:41:26;;;;;;;;;;;;;;;16.30;59.75;100390.91;4198125;28;20308;-57
2023/10/22 07:43:28;;;;;;;;;;;;;;;16.31;59.83;100399.69;4208052;28;20437;-57
2023/10/22 07:45:31;;;;;;;;;;;;;;;16.30;60.03;100396.22;4179219;28;20143;-58
2023/10/22 07:47:33;;;;;;;;;;;;;;;16.30;60.14;100406.81;4204003;28;20401;-58
2023/10/22 07:49:34;;;;;;;;;;;;;;;16.31;59.80;100410.31;4201477;28;19985;-57
2023/10/22 07:51:36;;;;;;;;;;;;;;;16.29;60.10;100415.72;4197260;28;19952;-57
2023/10/22 07:53:38;;;;;;;;;;;;;;;16.28;60.00;100416.69;4202179;28;19924;-59
2023/10/22 07:55:39;;;;;;;;;;;;;;;16.29;60.19;100423.69;4213374;28;19928;-57
2023/10/22 07:57:41;;;;;;;;;;;;;;;16.28;59.77;100427.28;4207394;28;19925;-57
2023/10/22 07:59:42;;;;;;;;;;;;;;;16.28;59.98;100421.97;4206919;28;20027;-57
2023/10/22 08:01:44;;;;;;;;;;;;;;;16.27;60.19;100423.81;4208833;28;19947;-57
2023/10/22 08:03:47;;;;;;;;;;;;;;;16.29;60.17;100424.56;4208292;28;19924;-57
2023/10/22 08:05:48;;;;;;;;;;;;;;;16.29;59.76;100421.03;4178732;28;19935;-58
2023/10/22 08:07:50;;;;;;;;;;;;;;;16.28;59.93;100427.28;4200505;28;19932;-58
2023/10/22 08:09:52;;;;;;;;;;;;;;;16.28;59.77;100427.28;4204625;28;19964;-57
2023/10/22 08:11:53;;;;;;;;;;;;;;;16.29;59.82;100434.31;4196414;28;19929;-57
2023/10/22 08:13:55;;;;;;;;;;;;;;;16.29;59.95;100432.53;4208204;28;19964;-56
2023/10/22 08:15:56;;;;;;;;;;;;;;;16.29;59.74;100434.31;4197006;28;20386;-56
2023/10/22 08:17:59;;;;;;;;;;;;;;;16.29;59.73;100435.19;4198636;28;19977;-56
2023/10/22 08:20:00;;;;;;;;;;;;;;;16.28;59.99;100438.78;4196536;28;20015;-56
2023/10/22 08:22:02;;;;;;;;;;;;;;;16.28;59.80;100433.47;4196607;28;20027;-57
2023/10/22 08:24:04;;;;;;;;;;;;;;;16.28;60.08;100438.78;4201727;28;19939;-56
2023/10/22 08:26:06;;;;;;;;;;;;;;;16.30;60.01;100443.97;4208411;28;19931;-56
2023/10/22 08:28:07;;;;;;;;;;;;;;;16.30;60.15;100443.97;4209264;28;19936;-56
2023/10/22 08:30:09;;;;;;;;;;;;;;;16.29;59.78;100450.22;4207755;28;19925;-55
2023/10/22 08:32:11;;;;;;;;;;;;;;;16.30;59.87;100449.28;4208891;28;19924;-56
2023/10/22 08:34:12;;;;;;;;;;;;;;;16.30;60.10;100443.97;4208641;28;20373;-55
2023/10/22 08:36:15;;;;;;;;;;;;;;;16.30;59.93;100441.31;4200447;28;19932;-55
2023/10/22 08:38:16;;;;;;;;;;;;;;;16.21;59.95;100437.47;4197611;28;19959;-56
2023/10/22 08:40:21;;;;;;;;;;;;;;;16.31;59.75;100451.00;4207362;28;19924;-57
2023/10/22 08:42:23;;;;;;;;;;;;;;;16.32;59.93;100462.44;4196449;28;19931;-53
2023/10/22 08:44:26;;;;;;;;;;;;;;;16.32;59.68;100465.97;4204178;28;20014;-56
2023/10/22 08:46:27;;;;;;;;;;;;;;;16.33;59.89;100465.03;4204023;28;19925;-57
2023/10/22 08:48:30;;;;;;;;;;;;;;;16.33;59.99;100465.03;4182835;28;20067;-57
2023/10/22 08:50:32;;;;;;;;;;;;;;;16.34;59.97;100471.16;4211491;28;20029;-56
2023/10/22 08:52:34;;;;;;;;;;;;;;;16.33;60.10;100475.63;4216063;28;19932;-57
2023/10/22 08:54:36;;;;;;;;;;;;;;;16.33;59.91;100478.28;4211756;28;20408;-57
2023/10/22 08:56:40;;;;;;;;;;;;;;;16.34;59.83;100489.75;4205436;28;19925;-57
2023/10/22 08:58:41;;;;;;;;;;;;;;;16.33;59.89;100483.59;4200134;28;19931;-57
2023/10/22 09:00:47;;;;;;;;;;;;;;;16.33;59.96;100486.25;4210625;28;19925;-57
2023/10/22 09:02:49;;;;;;;;;;;;;;;16.34;59.66;100495.06;4212803;28;20457;-57
2023/10/22 09:04:51;;;;;;;;;;;;;;;16.34;59.90;100492.41;4193691;28;20019;-57
2023/10/22 09:06:53;;;;;;;;;;;;;;;16.33;59.75;100494.22;4206209;28;19931;-57
2023/10/22 09:08:55;;;;;;;;;;;;;;;16.35;59.73;100499.41;4199249;28;20312;-57
2023/10/22 09:11:09;;;;;;;;;;;;;;;16.35;59.79;100508.22;4198949;28;19924;-61
2023/10/22 09:13:12;;;;;;;;;;;;;;;16.36;60.04;100506.44;4198827;28;19924;-56
2023/10/22 09:15:13;;;;;;;;;;;;;;;16.36;59.96;100512.59;4199104;28;20378;-57
2023/10/22 09:17:18;;;;;;;;;;;;;;;16.37;59.99;100516.09;4202272;28;19985;-56
2023/10/22 09:19:40;;;;;;;;;;;;;;;16.36;60.04;100512.59;4214828;28;19981;-58
2023/10/22 09:21:42;;;;;;;;;;;;;;;16.36;59.76;100515.22;4198723;28;19925;-56
2023/10/22 09:23:49;;;;;;;;;;;;;;;16.36;59.75;100512.59;4207466;28;20409;-55
2023/10/22 09:25:52;;;;;;;;;;;;;;;16.37;59.69;100518.75;4204038;28;19928;-56
2023/10/22 09:27:53;;;;;;;;;;;;;;;16.37;59.91;100519.59;4215448;28;19940;-56
2023/10/22 09:29:58;;;;;;;;;;;;;;;16.38;59.65;100521.31;4213789;28;19932;-55
2023/10/22 09:32:00;;;;;;;;;;;;;;;16.39;59.82;100525.66;4212469;28;19924;-57
2023/10/22 09:34:02;;;;;;;;;;;;;;;16.40;59.67;100523.84;4215678;28;19965;-56
2023/10/22 09:36:11;;;;;;;;;;;;;;;16.40;60.00;100526.50;4208287;28;19932;-57
2023/10/22 09:38:14;;;;;;;;;;;;;;;16.39;59.83;100522.16;4210703;28;20351;-56
2023/10/22 09:40:19;;;;;;;;;;;;;;;16.39;59.81;100522.16;4213827;28;19932;-57
2023/10/22 09:42:21;;;;;;;;;;;;;;;16.39;59.60;100533.63;4203772;28;20106;-56
2023/10/22 09:44:22;;;;;;;;;;;;;;;16.40;59.73;100527.38;4214717;28;19924;-56
2023/10/22 09:46:28;;;;;;;;;;;;;;;16.40;60.18;100522.06;4208565;28;19924;-57
2023/10/22 09:48:32;;;;;;;;;;;;;;;16.41;59.74;100522.91;4209952;28;20034;-57
2023/10/22 09:50:39;;;;;;;;;;;;;;;16.41;59.80;100512.28;4211571;28;19931;-58
2023/10/22 09:52:42;;;;;;;;;;;;;;;16.41;59.84;100523.75;4203843;28;19946;-57
2023/10/22 09:54:48;;;;;;;;;;;;;;;16.42;59.54;100524.63;4215267;28;20575;-58
2023/10/22 09:56:55;;;;;;;;;;;;;;;16.42;59.94;100530.78;4207587;28;19971;-57
2023/10/22 09:58:59;;;;;;;;;;;;;;;16.43;59.80;100534.28;4210256;28;20308;-58
2023/10/22 10:01:01;;;;;;;;;;;;;;;16.43;59.56;100529.81;4213513;28;19932;-58
2023/10/22 10:03:04;;;;;;;;;;;;;;;16.43;59.59;100521.88;4210699;28;19924;-57
2023/10/22 10:05:11;;;;;;;;;;;;;;;16.45;59.55;100529.72;4198129;28;19929;-56
2023/10/22 10:07:13;;;;;;;;;;;;;;;16.46;59.68;100531.44;4205605;28;19924;-56
2023/10/22 10:09:15;;;;;;;;;;;;;;;16.45;59.36;100533.25;4202864;28;20313;-56
2023/10/22 10:11:17;;;;;;;;;;;;;;;16.45;59.51;100535.91;4199602;28;19939;-57
2023/10/22 10:13:19;;;;;;;;;;;;;;;16.45;59.36;100535.91;4208898;28;19932;-53
2023/10/22 10:15:30;;;;;;;;;;;;;;;16.46;59.56;100544.69;4198195;28;19924;-57
2023/10/22 10:17:49;;;;;;;;;;;;;;;16.48;59.59;100550.78;4205224;28;19924;-57
2023/10/22 10:19:51;;;;;;;;;;;;;;;16.49;59.54;100544.53;4196602;28;20018;-57
2023/10/22 10:21:53;;;;;;;;;;;;;;;16.49;59.60;100549.84;4209573;28;19947;-58
2023/10/22 10:24:13;;;;;;;;;;;;;;;16.51;59.45;100547.06;4204704;28;19928;-58
2023/10/22 10:26:30;;;;;;;;;;;;;;;16.51;59.29;100547.06;4208014;28;19932;-57
2023/10/22 10:28:40;;;;;;;;;;;;;;;16.52;59.28;100544.31;4197297;28;19950;-57
2023/10/22 10:30:44;;;;;;;;;;;;;;;16.53;59.46;100556.63;4196872;28;19924;-58
2023/10/22 10:32:49;;;;;;;;;;;;;;;16.53;59.07;100543.38;4208944;28;19928;-57